sensor_id;sensor_type;location;lat;lon;timestamp;temperature;humidity
15819;DHT22;8010;53.986;12.106;2023-05-29T00:00:07;9.90;99.90
15819;DHT22;8010;53.986;12.106;2023-05-29T00:02:34;9.90;99.90
15819;DHT22;8010;53.986;12.106;2023-05-29T00:04:59;9.90;99.90
15819;DHT22;8010;53.986;12.106;2023-05-29T00:07:29;9.90;99.90
15819;DHT22;8010;53.986;12.106;2023-05-29T00:09:55;9.90;99.90
15819;DHT22;8010;53.986;12.106;2023-05-29T00:12:21;9.90;99.90
15819;DHT22;8010;53.986;12.106;2023-05-29T00:14:48;9.90;99.90
15819;DHT22;8010;53.986;12.106;2023-05-29T00:17:14;9.90;99.90
15819;DHT22;8010;53.986;12.106;2023-05-29T00:19:43;9.80;99.90
15819;DHT22;8010;53.986;12.106;2023-05-29T00:22:09;9.60;99.90
15819;DHT22;8010;53.986;12.106;2023-05-29T00:24:35;9.40;99.90
15819;DHT22;8010;53.986;12.106;2023-05-29T00:27:01;9.40;99.90
15819;DHT22;8010;53.986;12.106;2023-05-29T00:29:27;9.30;99.90
15819;DHT22;8010;53.986;12.106;2023-05-29T00:31:53;9.20;99.90
15819;DHT22;8010;53.986;12.106;2023-05-29T00:34:19;9.20;99.90
15819;DHT22;8010;53.986;12.106;2023-05-29T00:36:45;9.20;99.90
15819;DHT22;8010;53.986;12.106;2023-05-29T00:39:11;9.30;99.90
15819;DHT22;8010;53.986;12.106;2023-05-29T00:41:37;9.30;99.90
15819;DHT22;8010;53.986;12.106;2023-05-29T00:44:03;9.40;99.90
15819;DHT22;8010;53.986;12.106;2023-05-29T00:46:30;9.40;99.90
15819;DHT22;8010;53.986;12.106;2023-05-29T00:48:56;9.40;99.90
15819;DHT22;8010;53.986;12.106;2023-05-29T00:51:23;9.50;99.90
15819;DHT22;8010;53.986;12.106;2023-05-29T00:53:50;9.50;99.90
15819;DHT22;8010;53.986;12.106;2023-05-29T00:56:16;9.60;99.90
15819;DHT22;8010;53.986;12.106;2023-05-29T00:58:43;9.60;99.90
15819;DHT22;8010;53.986;12.106;2023-05-29T01:01:09;9.60;99.90
15819;DHT22;8010;53.986;12.106;2023-05-29T01:03:35;9.60;99.90
15819;DHT22;8010;53.986;12.106;2023-05-29T01:06:01;9.60;99.90
15819;DHT22;8010;53.986;12.106;2023-05-29T01:08:28;9.60;99.90
15819;DHT22;8010;53.986;12.106;2023-05-29T01:11:03;9.50;99.90
15819;DHT22;8010;53.986;12.106;2023-05-29T01:13:31;9.50;99.90
15819;DHT22;8010;53.986;12.106;2023-05-29T01:16:07;9.40;99.90
15819;DHT22;8010;53.986;12.106;2023-05-29T01:18:57;9.50;99.90
15819;DHT22;8010;53.986;12.106;2023-05-29T01:24:18;9.30;99.90
15819;DHT22;8010;53.986;12.106;2023-05-29T01:29:23;9.30;99.90
15819;DHT22;8010;53.986;12.106;2023-05-29T01:31:50;9.30;99.90
15819;DHT22;8010;53.986;12.106;2023-05-29T01:34:17;9.30;99.90
15819;DHT22;8010;53.986;12.106;2023-05-29T01:36:42;9.30;99.90
15819;DHT22;8010;53.986;12.106;2023-05-29T01:39:09;9.30;99.90
15819;DHT22;8010;53.986;12.106;2023-05-29T01:41:35;9.40;99.90
15819;DHT22;8010;53.986;12.106;2023-05-29T01:44:03;9.40;99.90
15819;DHT22;8010;53.986;12.106;2023-05-29T01:46:30;9.40;99.90
15819;DHT22;8010;53.986;12.106;2023-05-29T01:48:56;9.40;99.90
15819;DHT22;8010;53.986;12.106;2023-05-29T01:51:21;9.40;99.90
15819;DHT22;8010;53.986;12.106;2023-05-29T01:53:47;9.40;99.90
15819;DHT22;8010;53.986;12.106;2023-05-29T01:56:13;9.40;99.90
15819;DHT22;8010;53.986;12.106;2023-05-29T01:58:40;9.40;99.90
15819;DHT22;8010;53.986;12.106;2023-05-29T02:01:07;9.30;99.90
15819;DHT22;8010;53.986;12.106;2023-05-29T02:03:33;9.30;99.90
15819;DHT22;8010;53.986;12.106;2023-05-29T02:06:00;9.30;99.90
15819;DHT22;8010;53.986;12.106;2023-05-29T02:08:26;9.20;99.90
15819;DHT22;8010;53.986;12.106;2023-05-29T02:10:53;9.20;99.90
15819;DHT22;8010;53.986;12.106;2023-05-29T02:13:18;9.10;99.90
15819;DHT22;8010;53.986;12.106;2023-05-29T02:15:44;9.10;99.90
15819;DHT22;8010;53.986;12.106;2023-05-29T02:18:12;9.10;99.90
15819;DHT22;8010;53.986;12.106;2023-05-29T02:20:38;10.20;99.90
15819;DHT22;8010;53.986;12.106;2023-05-29T02:23:04;9.10;99.90
15819;DHT22;8010;53.986;12.106;2023-05-29T02:25:30;9.10;99.90
15819;DHT22;8010;53.986;12.106;2023-05-29T02:27:56;9.20;99.90
15819;DHT22;8010;53.986;12.106;2023-05-29T02:30:22;9.20;99.90
15819;DHT22;8010;53.986;12.106;2023-05-29T02:32:47;9.20;99.90
15819;DHT22;8010;53.986;12.106;2023-05-29T02:35:13;9.20;99.90
15819;DHT22;8010;53.986;12.106;2023-05-29T02:37:41;9.20;99.90
15819;DHT22;8010;53.986;12.106;2023-05-29T02:40:07;9.10;99.90
15819;DHT22;8010;53.986;12.106;2023-05-29T02:42:33;9.10;99.90
15819;DHT22;8010;53.986;12.106;2023-05-29T02:44:59;9.00;99.90
15819;DHT22;8010;53.986;12.106;2023-05-29T02:47:24;9.00;99.90
15819;DHT22;8010;53.986;12.106;2023-05-29T02:49:50;8.90;99.90
15819;DHT22;8010;53.986;12.106;2023-05-29T02:52:16;8.90;99.90
15819;DHT22;8010;53.986;12.106;2023-05-29T02:54:41;8.80;99.90
15819;DHT22;8010;53.986;12.106;2023-05-29T02:57:07;8.80;99.90
15819;DHT22;8010;53.986;12.106;2023-05-29T02:59:33;8.70;99.90
15819;DHT22;8010;53.986;12.106;2023-05-29T03:01:58;8.70;99.90
15819;DHT22;8010;53.986;12.106;2023-05-29T03:04:24;8.70;99.90
15819;DHT22;8010;53.986;12.106;2023-05-29T03:06:50;8.90;99.90
15819;DHT22;8010;53.986;12.106;2023-05-29T03:09:15;8.70;99.90
15819;DHT22;8010;53.986;12.106;2023-05-29T03:11:42;8.80;99.90
15819;DHT22;8010;53.986;12.106;2023-05-29T03:14:07;8.70;99.90
15819;DHT22;8010;53.986;12.106;2023-05-29T03:16:34;8.80;99.90
15819;DHT22;8010;53.986;12.106;2023-05-29T03:19:01;8.80;99.90
15819;DHT22;8010;53.986;12.106;2023-05-29T03:21:27;8.70;99.90
15819;DHT22;8010;53.986;12.106;2023-05-29T03:23:52;8.70;99.90
15819;DHT22;8010;53.986;12.106;2023-05-29T03:26:18;8.70;99.90
15819;DHT22;8010;53.986;12.106;2023-05-29T03:28:44;8.70;99.90
15819;DHT22;8010;53.986;12.106;2023-05-29T03:31:09;8.70;99.90
15819;DHT22;8010;53.986;12.106;2023-05-29T03:33:38;8.70;99.90
15819;DHT22;8010;53.986;12.106;2023-05-29T03:36:04;8.70;99.90
15819;DHT22;8010;53.986;12.106;2023-05-29T03:38:30;8.70;99.90
15819;DHT22;8010;53.986;12.106;2023-05-29T03:40:56;8.70;99.90
15819;DHT22;8010;53.986;12.106;2023-05-29T03:43:21;8.70;99.90
15819;DHT22;8010;53.986;12.106;2023-05-29T03:45:47;8.70;99.90
15819;DHT22;8010;53.986;12.106;2023-05-29T03:48:13;8.70;99.90
15819;DHT22;8010;53.986;12.106;2023-05-29T03:50:39;8.70;99.90
15819;DHT22;8010;53.986;12.106;2023-05-29T03:53:05;8.70;99.90
15819;DHT22;8010;53.986;12.106;2023-05-29T03:55:31;8.60;99.90
15819;DHT22;8010;53.986;12.106;2023-05-29T03:57:57;8.60;99.90
15819;DHT22;8010;53.986;12.106;2023-05-29T04:00:23;8.60;99.90
15819;DHT22;8010;53.986;12.106;2023-05-29T04:02:48;8.60;99.90
15819;DHT22;8010;53.986;12.106;2023-05-29T04:05:14;8.60;99.90
15819;DHT22;8010;53.986;12.106;2023-05-29T04:07:40;8.60;99.90
15819;DHT22;8010;53.986;12.106;2023-05-29T04:10:06;8.60;99.90
15819;DHT22;8010;53.986;12.106;2023-05-29T04:12:32;8.60;99.90
15819;DHT22;8010;53.986;12.106;2023-05-29T04:14:59;8.70;99.90
15819;DHT22;8010;53.986;12.106;2023-05-29T04:17:24;8.70;99.90
15819;DHT22;8010;53.986;12.106;2023-05-29T04:19:50;8.70;99.90
15819;DHT22;8010;53.986;12.106;2023-05-29T04:22:16;8.80;99.90
15819;DHT22;8010;53.986;12.106;2023-05-29T04:24:42;8.80;99.90
15819;DHT22;8010;53.986;12.106;2023-05-29T04:27:08;8.90;99.90
15819;DHT22;8010;53.986;12.106;2023-05-29T04:29:36;8.90;99.90
15819;DHT22;8010;53.986;12.106;2023-05-29T04:32:06;9.70;99.90
15819;DHT22;8010;53.986;12.106;2023-05-29T04:34:33;9.10;99.90
15819;DHT22;8010;53.986;12.106;2023-05-29T04:36:59;9.10;99.90
15819;DHT22;8010;53.986;12.106;2023-05-29T04:39:25;9.20;99.90
15819;DHT22;8010;53.986;12.106;2023-05-29T04:41:51;9.30;99.90
15819;DHT22;8010;53.986;12.106;2023-05-29T04:44:17;9.40;99.90
15819;DHT22;8010;53.986;12.106;2023-05-29T04:46:43;9.50;99.90
15819;DHT22;8010;53.986;12.106;2023-05-29T04:49:13;9.60;99.90
15819;DHT22;8010;53.986;12.106;2023-05-29T04:51:39;9.70;99.90
15819;DHT22;8010;53.986;12.106;2023-05-29T04:54:08;9.80;99.90
15819;DHT22;8010;53.986;12.106;2023-05-29T04:56:34;9.90;99.90
15819;DHT22;8010;53.986;12.106;2023-05-29T04:59:00;10.00;99.90
15819;DHT22;8010;53.986;12.106;2023-05-29T05:01:26;10.10;99.90
15819;DHT22;8010;53.986;12.106;2023-05-29T05:03:51;10.20;99.90
15819;DHT22;8010;53.986;12.106;2023-05-29T05:06:26;10.30;99.90
15819;DHT22;8010;53.986;12.106;2023-05-29T05:08:54;10.40;99.90
15819;DHT22;8010;53.986;12.106;2023-05-29T05:11:23;10.60;99.90
15819;DHT22;8010;53.986;12.106;2023-05-29T05:13:49;10.70;99.90
15819;DHT22;8010;53.986;12.106;2023-05-29T05:16:15;10.80;99.90
15819;DHT22;8010;53.986;12.106;2023-05-29T05:18:43;10.90;99.90
15819;DHT22;8010;53.986;12.106;2023-05-29T05:21:08;11.00;99.90
15819;DHT22;8010;53.986;12.106;2023-05-29T05:23:34;11.10;99.90
15819;DHT22;8010;53.986;12.106;2023-05-29T05:26:00;11.20;99.90
15819;DHT22;8010;53.986;12.106;2023-05-29T05:28:25;11.30;99.90
15819;DHT22;8010;53.986;12.106;2023-05-29T05:30:51;11.50;99.90
15819;DHT22;8010;53.986;12.106;2023-05-29T05:33:17;11.60;99.90
15819;DHT22;8010;53.986;12.106;2023-05-29T05:35:42;11.70;99.90
15819;DHT22;8010;53.986;12.106;2023-05-29T05:38:08;11.80;99.90
15819;DHT22;8010;53.986;12.106;2023-05-29T05:40:34;11.90;99.90
15819;DHT22;8010;53.986;12.106;2023-05-29T05:43:00;12.00;99.90
15819;DHT22;8010;53.986;12.106;2023-05-29T05:45:25;12.10;99.90
15819;DHT22;8010;53.986;12.106;2023-05-29T05:47:51;12.20;99.90
15819;DHT22;8010;53.986;12.106;2023-05-29T05:50:17;12.30;99.90
15819;DHT22;8010;53.986;12.106;2023-05-29T05:52:42;12.40;99.90
15819;DHT22;8010;53.986;12.106;2023-05-29T05:55:08;12.40;99.90
15819;DHT22;8010;53.986;12.106;2023-05-29T05:57:34;12.50;99.90
15819;DHT22;8010;53.986;12.106;2023-05-29T06:00:02;12.60;99.90
15819;DHT22;8010;53.986;12.106;2023-05-29T06:02:31;12.80;99.90
15819;DHT22;8010;53.986;12.106;2023-05-29T06:04:56;13.00;99.90
15819;DHT22;8010;53.986;12.106;2023-05-29T06:07:22;13.20;99.90
15819;DHT22;8010;53.986;12.106;2023-05-29T06:09:48;13.50;99.90
15819;DHT22;8010;53.986;12.106;2023-05-29T06:12:14;13.80;99.90
15819;DHT22;8010;53.986;12.106;2023-05-29T06:14:41;14.60;99.90
15819;DHT22;8010;53.986;12.106;2023-05-29T06:17:06;13.70;99.90
15819;DHT22;8010;53.986;12.106;2023-05-29T06:19:32;13.60;99.90
15819;DHT22;8010;53.986;12.106;2023-05-29T06:21:57;13.70;99.90
15819;DHT22;8010;53.986;12.106;2023-05-29T06:24:23;13.90;99.90
15819;DHT22;8010;53.986;12.106;2023-05-29T06:26:49;14.10;99.90
15819;DHT22;8010;53.986;12.106;2023-05-29T06:29:15;14.20;99.90
15819;DHT22;8010;53.986;12.106;2023-05-29T06:31:41;14.20;99.90
15819;DHT22;8010;53.986;12.106;2023-05-29T06:34:06;14.10;99.90
15819;DHT22;8010;53.986;12.106;2023-05-29T06:36:32;14.10;99.90
15819;DHT22;8010;53.986;12.106;2023-05-29T06:38:58;14.20;99.90
15819;DHT22;8010;53.986;12.106;2023-05-29T06:41:23;14.20;99.90
15819;DHT22;8010;53.986;12.106;2023-05-29T06:43:49;14.20;99.90
15819;DHT22;8010;53.986;12.106;2023-05-29T06:46:15;14.20;99.90
15819;DHT22;8010;53.986;12.106;2023-05-29T06:48:41;14.30;99.90
15819;DHT22;8010;53.986;12.106;2023-05-29T06:51:06;14.30;99.90
15819;DHT22;8010;53.986;12.106;2023-05-29T06:53:40;14.40;99.90
15819;DHT22;8010;53.986;12.106;2023-05-29T06:56:06;14.40;99.90
15819;DHT22;8010;53.986;12.106;2023-05-29T06:58:32;14.50;99.90
15819;DHT22;8010;53.986;12.106;2023-05-29T07:00:58;14.60;99.90
15819;DHT22;8010;53.986;12.106;2023-05-29T07:03:28;14.70;99.90
15819;DHT22;8010;53.986;12.106;2023-05-29T07:05:54;14.80;99.90
15819;DHT22;8010;53.986;12.106;2023-05-29T07:08:20;14.90;99.90
15819;DHT22;8010;53.986;12.106;2023-05-29T07:10:46;15.10;99.90
15819;DHT22;8010;53.986;12.106;2023-05-29T07:13:15;15.30;99.90
15819;DHT22;8010;53.986;12.106;2023-05-29T07:15:41;15.50;99.90
15819;DHT22;8010;53.986;12.106;2023-05-29T07:18:07;15.50;99.90
15819;DHT22;8010;53.986;12.106;2023-05-29T07:20:33;15.60;99.90
15819;DHT22;8010;53.986;12.106;2023-05-29T07:22:58;15.70;99.90
15819;DHT22;8010;53.986;12.106;2023-05-29T07:25:24;15.90;99.90
15819;DHT22;8010;53.986;12.106;2023-05-29T07:27:50;15.90;99.90
15819;DHT22;8010;53.986;12.106;2023-05-29T07:30:16;15.80;99.90
15819;DHT22;8010;53.986;12.106;2023-05-29T07:32:42;15.80;99.90
15819;DHT22;8010;53.986;12.106;2023-05-29T07:35:07;15.80;99.90
15819;DHT22;8010;53.986;12.106;2023-05-29T07:37:34;15.80;99.90
15819;DHT22;8010;53.986;12.106;2023-05-29T07:40:00;15.80;99.90
15819;DHT22;8010;53.986;12.106;2023-05-29T07:42:25;15.80;99.90
15819;DHT22;8010;53.986;12.106;2023-05-29T07:44:51;15.90;99.90
15819;DHT22;8010;53.986;12.106;2023-05-29T07:47:17;16.10;99.90
15819;DHT22;8010;53.986;12.106;2023-05-29T07:49:42;16.30;99.90
15819;DHT22;8010;53.986;12.106;2023-05-29T07:52:08;16.20;99.90
15819;DHT22;8010;53.986;12.106;2023-05-29T07:54:34;16.30;99.90
15819;DHT22;8010;53.986;12.106;2023-05-29T07:57:00;16.80;99.90
15819;DHT22;8010;53.986;12.106;2023-05-29T07:59:26;16.60;99.90
15819;DHT22;8010;53.986;12.106;2023-05-29T08:01:52;16.70;99.90
15819;DHT22;8010;53.986;12.106;2023-05-29T08:04:17;16.90;99.90
15819;DHT22;8010;53.986;12.106;2023-05-29T08:06:43;16.80;99.90
15819;DHT22;8010;53.986;12.106;2023-05-29T08:09:09;16.90;99.90
15819;DHT22;8010;53.986;12.106;2023-05-29T08:11:36;17.00;99.90
15819;DHT22;8010;53.986;12.106;2023-05-29T08:14:02;17.00;99.90
15819;DHT22;8010;53.986;12.106;2023-05-29T08:16:28;17.00;99.90
15819;DHT22;8010;53.986;12.106;2023-05-29T08:18:53;17.00;99.90
15819;DHT22;8010;53.986;12.106;2023-05-29T08:21:19;17.10;99.90
15819;DHT22;8010;53.986;12.106;2023-05-29T08:23:45;17.40;99.90
15819;DHT22;8010;53.986;12.106;2023-05-29T08:26:10;17.60;99.90
15819;DHT22;8010;53.986;12.106;2023-05-29T08:28:37;17.90;99.90
15819;DHT22;8010;53.986;12.106;2023-05-29T08:31:02;18.00;99.90
15819;DHT22;8010;53.986;12.106;2023-05-29T08:33:28;18.20;99.90
15819;DHT22;8010;53.986;12.106;2023-05-29T08:35:57;18.30;99.90
15819;DHT22;8010;53.986;12.106;2023-05-29T08:38:23;18.40;99.90
15819;DHT22;8010;53.986;12.106;2023-05-29T08:40:51;18.30;99.90
15819;DHT22;8010;53.986;12.106;2023-05-29T08:43:22;18.20;99.90
15819;DHT22;8010;53.986;12.106;2023-05-29T08:45:53;18.10;99.90
15819;DHT22;8010;53.986;12.106;2023-05-29T08:48:22;18.00;99.90
15819;DHT22;8010;53.986;12.106;2023-05-29T08:50:48;18.00;99.90
15819;DHT22;8010;53.986;12.106;2023-05-29T08:53:17;18.10;99.90
15819;DHT22;8010;53.986;12.106;2023-05-29T08:55:44;18.10;99.90
15819;DHT22;8010;53.986;12.106;2023-05-29T08:58:13;18.10;99.90
15819;DHT22;8010;53.986;12.106;2023-05-29T09:00:39;18.10;99.90
15819;DHT22;8010;53.986;12.106;2023-05-29T09:03:06;17.90;99.90
15819;DHT22;8010;53.986;12.106;2023-05-29T09:05:32;17.90;99.90
15819;DHT22;8010;53.986;12.106;2023-05-29T09:07:59;17.80;99.90
15819;DHT22;8010;53.986;12.106;2023-05-29T09:10:24;17.80;99.90
15819;DHT22;8010;53.986;12.106;2023-05-29T09:12:53;18.00;99.90
15819;DHT22;8010;53.986;12.106;2023-05-29T09:15:23;18.20;99.90
15819;DHT22;8010;53.986;12.106;2023-05-29T09:17:53;18.30;99.90
15819;DHT22;8010;53.986;12.106;2023-05-29T09:20:20;18.50;99.90
15819;DHT22;8010;53.986;12.106;2023-05-29T09:23:06;18.60;99.90
15819;DHT22;8010;53.986;12.106;2023-05-29T09:25:39;18.80;99.90
15819;DHT22;8010;53.986;12.106;2023-05-29T09:28:06;18.80;99.90
15819;DHT22;8010;53.986;12.106;2023-05-29T09:30:53;18.70;99.90
15819;DHT22;8010;53.986;12.106;2023-05-29T09:33:19;18.60;99.90
15819;DHT22;8010;53.986;12.106;2023-05-29T09:35:47;18.60;99.90
15819;DHT22;8010;53.986;12.106;2023-05-29T09:38:14;18.80;99.90
15819;DHT22;8010;53.986;12.106;2023-05-29T09:40:44;19.10;99.90
15819;DHT22;8010;53.986;12.106;2023-05-29T09:43:14;19.10;99.90
15819;DHT22;8010;53.986;12.106;2023-05-29T09:45:43;19.30;99.90
15819;DHT22;8010;53.986;12.106;2023-05-29T09:50:39;19.80;99.90
15819;DHT22;8010;53.986;12.106;2023-05-29T09:53:18;20.00;99.90
15819;DHT22;8010;53.986;12.106;2023-05-29T09:55:48;20.00;99.90
15819;DHT22;8010;53.986;12.106;2023-05-29T09:58:15;20.00;99.90
15819;DHT22;8010;53.986;12.106;2023-05-29T10:00:42;20.20;99.90
15819;DHT22;8010;53.986;12.106;2023-05-29T10:03:08;20.30;99.90
15819;DHT22;8010;53.986;12.106;2023-05-29T10:05:34;20.40;99.90
15819;DHT22;8010;53.986;12.106;2023-05-29T10:08:01;20.30;99.90
15819;DHT22;8010;53.986;12.106;2023-05-29T10:10:28;20.40;99.90
15819;DHT22;8010;53.986;12.106;2023-05-29T10:12:56;20.70;99.90
15819;DHT22;8010;53.986;12.106;2023-05-29T10:15:23;20.80;99.90
15819;DHT22;8010;53.986;12.106;2023-05-29T10:18:02;20.80;99.90
15819;DHT22;8010;53.986;12.106;2023-05-29T10:20:31;20.80;99.90
15819;DHT22;8010;53.986;12.106;2023-05-29T10:23:00;21.00;99.90
15819;DHT22;8010;53.986;12.106;2023-05-29T10:25:27;21.00;99.90
15819;DHT22;8010;53.986;12.106;2023-05-29T10:27:56;20.90;99.90
15819;DHT22;8010;53.986;12.106;2023-05-29T10:30:29;20.90;99.90
15819;DHT22;8010;53.986;12.106;2023-05-29T10:35:47;21.10;99.90
15819;DHT22;8010;53.986;12.106;2023-05-29T10:38:17;21.30;99.90
15819;DHT22;8010;53.986;12.106;2023-05-29T10:40:44;21.40;99.90
15819;DHT22;8010;53.986;12.106;2023-05-29T10:43:33;21.90;99.90
15819;DHT22;8010;53.986;12.106;2023-05-29T10:45:59;21.40;99.90
15819;DHT22;8010;53.986;12.106;2023-05-29T10:50:55;21.50;99.90
15819;DHT22;8010;53.986;12.106;2023-05-29T10:53:26;21.60;99.90
15819;DHT22;8010;53.986;12.106;2023-05-29T10:55:52;21.70;99.90
15819;DHT22;8010;53.986;12.106;2023-05-29T10:58:22;21.90;99.90
15819;DHT22;8010;53.986;12.106;2023-05-29T11:00:49;21.70;99.90
15819;DHT22;8010;53.986;12.106;2023-05-29T11:03:17;21.80;99.90
15819;DHT22;8010;53.986;12.106;2023-05-29T11:05:56;21.80;99.90
15819;DHT22;8010;53.986;12.106;2023-05-29T11:08:35;21.80;99.90
15819;DHT22;8010;53.986;12.106;2023-05-29T11:11:02;22.00;99.90
15819;DHT22;8010;53.986;12.106;2023-05-29T11:13:37;22.20;99.90
15819;DHT22;8010;53.986;12.106;2023-05-29T11:16:10;22.30;99.90
15819;DHT22;8010;53.986;12.106;2023-05-29T11:18:41;22.60;99.90
15819;DHT22;8010;53.986;12.106;2023-05-29T11:23:45;22.90;99.90
15819;DHT22;8010;53.986;12.106;2023-05-29T11:26:12;23.10;99.90
15819;DHT22;8010;53.986;12.106;2023-05-29T11:28:39;23.20;99.90
15819;DHT22;8010;53.986;12.106;2023-05-29T11:31:08;23.50;99.90
15819;DHT22;8010;53.986;12.106;2023-05-29T11:33:38;23.40;99.90
15819;DHT22;8010;53.986;12.106;2023-05-29T11:36:05;23.20;99.90
15819;DHT22;8010;53.986;12.106;2023-05-29T11:38:31;23.10;99.90
15819;DHT22;8010;53.986;12.106;2023-05-29T11:40:57;23.30;99.90
15819;DHT22;8010;53.986;12.106;2023-05-29T11:43:24;23.10;99.90
15819;DHT22;8010;53.986;12.106;2023-05-29T11:45:50;23.10;99.90
15819;DHT22;8010;53.986;12.106;2023-05-29T11:48:15;23.00;99.90
15819;DHT22;8010;53.986;12.106;2023-05-29T11:50:41;23.00;99.90
15819;DHT22;8010;53.986;12.106;2023-05-29T11:53:07;23.10;99.90
15819;DHT22;8010;53.986;12.106;2023-05-29T11:55:33;23.10;99.90
15819;DHT22;8010;53.986;12.106;2023-05-29T11:58:01;23.10;99.90
15819;DHT22;8010;53.986;12.106;2023-05-29T12:00:37;23.00;99.90
15819;DHT22;8010;53.986;12.106;2023-05-29T12:03:05;23.20;99.90
15819;DHT22;8010;53.986;12.106;2023-05-29T12:05:38;23.30;99.90
15819;DHT22;8010;53.986;12.106;2023-05-29T12:08:09;23.30;99.90
15819;DHT22;8010;53.986;12.106;2023-05-29T12:10:34;23.60;99.90
15819;DHT22;8010;53.986;12.106;2023-05-29T12:13:00;23.60;99.90
15819;DHT22;8010;53.986;12.106;2023-05-29T12:15:26;23.60;99.90
15819;DHT22;8010;53.986;12.106;2023-05-29T12:17:53;23.60;99.90
15819;DHT22;8010;53.986;12.106;2023-05-29T12:20:23;23.60;99.90
15819;DHT22;8010;53.986;12.106;2023-05-29T12:22:49;23.50;99.90
15819;DHT22;8010;53.986;12.106;2023-05-29T12:25:16;23.50;99.90
15819;DHT22;8010;53.986;12.106;2023-05-29T12:27:46;23.50;99.90
15819;DHT22;8010;53.986;12.106;2023-05-29T12:30:14;23.60;99.90
15819;DHT22;8010;53.986;12.106;2023-05-29T12:32:44;23.30;99.90
15819;DHT22;8010;53.986;12.106;2023-05-29T12:35:18;23.30;99.90
15819;DHT22;8010;53.986;12.106;2023-05-29T12:37:48;23.40;99.90
15819;DHT22;8010;53.986;12.106;2023-05-29T12:40:20;23.50;99.90
15819;DHT22;8010;53.986;12.106;2023-05-29T12:42:47;23.60;99.90
15819;DHT22;8010;53.986;12.106;2023-05-29T12:45:13;23.80;99.90
15819;DHT22;8010;53.986;12.106;2023-05-29T12:48:06;23.80;99.90
15819;DHT22;8010;53.986;12.106;2023-05-29T12:50:33;23.80;99.90
15819;DHT22;8010;53.986;12.106;2023-05-29T12:53:03;23.80;99.90
15819;DHT22;8010;53.986;12.106;2023-05-29T12:55:31;23.90;99.90
15819;DHT22;8010;53.986;12.106;2023-05-29T12:58:08;24.10;99.50
15819;DHT22;8010;53.986;12.106;2023-05-29T13:00:34;24.00;99.90
15819;DHT22;8010;53.986;12.106;2023-05-29T13:03:00;24.10;99.90
15819;DHT22;8010;53.986;12.106;2023-05-29T13:05:27;24.10;99.90
15819;DHT22;8010;53.986;12.106;2023-05-29T13:07:53;24.30;99.90
15819;DHT22;8010;53.986;12.106;2023-05-29T13:10:19;24.30;99.90
15819;DHT22;8010;53.986;12.106;2023-05-29T13:12:45;24.30;99.90
15819;DHT22;8010;53.986;12.106;2023-05-29T13:15:12;24.50;99.90
15819;DHT22;8010;53.986;12.106;2023-05-29T13:17:38;24.50;99.90
15819;DHT22;8010;53.986;12.106;2023-05-29T13:20:11;24.30;99.90
15819;DHT22;8010;53.986;12.106;2023-05-29T13:22:38;24.50;99.90
15819;DHT22;8010;53.986;12.106;2023-05-29T13:25:04;24.70;99.90
15819;DHT22;8010;53.986;12.106;2023-05-29T13:27:32;24.90;99.90
15819;DHT22;8010;53.986;12.106;2023-05-29T13:29:58;25.00;99.90
15819;DHT22;8010;53.986;12.106;2023-05-29T13:32:24;24.80;99.90
15819;DHT22;8010;53.986;12.106;2023-05-29T13:34:49;24.60;98.70
15819;DHT22;8010;53.986;12.106;2023-05-29T13:37:15;24.50;99.90
15819;DHT22;8010;53.986;12.106;2023-05-29T13:39:41;24.50;99.90
15819;DHT22;8010;53.986;12.106;2023-05-29T13:42:07;24.90;99.90
15819;DHT22;8010;53.986;12.106;2023-05-29T13:44:33;24.70;99.30
15819;DHT22;8010;53.986;12.106;2023-05-29T13:46:58;24.70;99.90
15819;DHT22;8010;53.986;12.106;2023-05-29T13:49:25;25.60;99.90
15819;DHT22;8010;53.986;12.106;2023-05-29T13:51:51;24.80;98.90
15819;DHT22;8010;53.986;12.106;2023-05-29T13:54:17;24.70;99.20
15819;DHT22;8010;53.986;12.106;2023-05-29T13:56:47;24.90;99.90
15819;DHT22;8010;53.986;12.106;2023-05-29T13:59:13;24.90;99.30
15819;DHT22;8010;53.986;12.106;2023-05-29T14:01:38;24.70;99.00
15819;DHT22;8010;53.986;12.106;2023-05-29T14:04:04;24.50;99.40
15819;DHT22;8010;53.986;12.106;2023-05-29T14:06:29;24.20;99.90
15819;DHT22;8010;53.986;12.106;2023-05-29T14:08:55;24.30;98.90
15819;DHT22;8010;53.986;12.106;2023-05-29T14:11:21;24.20;99.60
15819;DHT22;8010;53.986;12.106;2023-05-29T14:13:47;24.20;99.90
15819;DHT22;8010;53.986;12.106;2023-05-29T14:16:12;24.20;99.90
15819;DHT22;8010;53.986;12.106;2023-05-29T14:18:40;24.40;99.90
15819;DHT22;8010;53.986;12.106;2023-05-29T14:21:07;24.60;99.20
15819;DHT22;8010;53.986;12.106;2023-05-29T14:23:32;24.70;98.50
15819;DHT22;8010;53.986;12.106;2023-05-29T14:25:59;24.60;98.40
15819;DHT22;8010;53.986;12.106;2023-05-29T14:28:25;24.70;98.60
15819;DHT22;8010;53.986;12.106;2023-05-29T14:30:50;24.50;98.00
15819;DHT22;8010;53.986;12.106;2023-05-29T14:33:16;24.60;98.00
15819;DHT22;8010;53.986;12.106;2023-05-29T14:35:41;24.30;98.30
15819;DHT22;8010;53.986;12.106;2023-05-29T14:38:07;24.20;98.10
15819;DHT22;8010;53.986;12.106;2023-05-29T14:40:32;24.30;99.20
15819;DHT22;8010;53.986;12.106;2023-05-29T14:42:59;24.30;98.10
15819;DHT22;8010;53.986;12.106;2023-05-29T14:45:25;24.40;97.40
15819;DHT22;8010;53.986;12.106;2023-05-29T14:47:50;24.50;97.80
15819;DHT22;8010;53.986;12.106;2023-05-29T14:50:16;24.70;97.90
15819;DHT22;8010;53.986;12.106;2023-05-29T14:52:42;24.80;97.10
15819;DHT22;8010;53.986;12.106;2023-05-29T14:55:07;24.80;97.00
15819;DHT22;8010;53.986;12.106;2023-05-29T14:57:33;24.70;96.50
15819;DHT22;8010;53.986;12.106;2023-05-29T15:00:00;24.80;95.90
15819;DHT22;8010;53.986;12.106;2023-05-29T15:02:26;24.90;95.80
15819;DHT22;8010;53.986;12.106;2023-05-29T15:04:51;24.90;93.40
15819;DHT22;8010;53.986;12.106;2023-05-29T15:07:17;24.90;92.80
15819;DHT22;8010;53.986;12.106;2023-05-29T15:09:43;24.70;94.90
15819;DHT22;8010;53.986;12.106;2023-05-29T15:12:09;24.50;96.00
15819;DHT22;8010;53.986;12.106;2023-05-29T15:14:35;24.30;95.20
15819;DHT22;8010;53.986;12.106;2023-05-29T15:17:01;24.30;95.80
15819;DHT22;8010;53.986;12.106;2023-05-29T15:19:27;23.90;96.60
15819;DHT22;8010;53.986;12.106;2023-05-29T15:21:52;23.60;97.20
15819;DHT22;8010;53.986;12.106;2023-05-29T15:24:18;23.70;98.50
15819;DHT22;8010;53.986;12.106;2023-05-29T15:26:43;23.70;97.40
15819;DHT22;8010;53.986;12.106;2023-05-29T15:29:09;23.60;98.40
15819;DHT22;8010;53.986;12.106;2023-05-29T15:31:35;23.60;98.50
15819;DHT22;8010;53.986;12.106;2023-05-29T15:34:01;23.50;98.50
15819;DHT22;8010;53.986;12.106;2023-05-29T15:36:27;23.60;98.30
15819;DHT22;8010;53.986;12.106;2023-05-29T15:38:54;23.80;98.00
15819;DHT22;8010;53.986;12.106;2023-05-29T15:41:20;23.90;97.50
15819;DHT22;8010;53.986;12.106;2023-05-29T15:43:45;23.80;98.50
15819;DHT22;8010;53.986;12.106;2023-05-29T15:46:11;23.80;98.50
15819;DHT22;8010;53.986;12.106;2023-05-29T15:48:36;23.80;97.90